sensor_id;sensor_type;location;lat;lon;timestamp;temperature;humidity
30520;DHT22;17300;50.374;8.006;2023-02-15T00:00:27;7.30;53.90
30520;DHT22;17300;50.374;8.006;2023-02-15T00:02:53;7.30;54.00
30520;DHT22;17300;50.374;8.006;2023-02-15T00:05:20;7.30;53.40
30520;DHT22;17300;50.374;8.006;2023-02-15T00:07:46;7.30;53.40
30520;DHT22;17300;50.374;8.006;2023-02-15T00:10:13;7.30;53.40
30520;DHT22;17300;50.374;8.006;2023-02-15T00:12:40;7.30;53.50
30520;DHT22;17300;50.374;8.006;2023-02-15T00:15:07;7.30;53.50
30520;DHT22;17300;50.374;8.006;2023-02-15T00:17:35;7.30;53.40
30520;DHT22;17300;50.374;8.006;2023-02-15T00:20:02;7.30;53.40
30520;DHT22;17300;50.374;8.006;2023-02-15T00:22:28;7.30;53.40
30520;DHT22;17300;50.374;8.006;2023-02-15T00:24:55;7.40;53.60
30520;DHT22;17300;50.374;8.006;2023-02-15T00:27:22;7.30;53.40
30520;DHT22;17300;50.374;8.006;2023-02-15T00:29:49;7.30;53.30
30520;DHT22;17300;50.374;8.006;2023-02-15T00:32:15;7.30;53.30
30520;DHT22;17300;50.374;8.006;2023-02-15T00:34:43;7.30;53.30
30520;DHT22;17300;50.374;8.006;2023-02-15T00:37:10;7.30;53.30
30520;DHT22;17300;50.374;8.006;2023-02-15T00:39:36;7.30;53.20
30520;DHT22;17300;50.374;8.006;2023-02-15T00:42:03;7.30;53.10
30520;DHT22;17300;50.374;8.006;2023-02-15T00:44:30;7.20;53.10
30520;DHT22;17300;50.374;8.006;2023-02-15T00:46:56;7.20;53.20
30520;DHT22;17300;50.374;8.006;2023-02-15T00:49:26;7.20;53.30
30520;DHT22;17300;50.374;8.006;2023-02-15T00:51:54;7.10;53.20
30520;DHT22;17300;50.374;8.006;2023-02-15T00:54:21;7.10;53.20
30520;DHT22;17300;50.374;8.006;2023-02-15T00:56:47;7.10;53.30
30520;DHT22;17300;50.374;8.006;2023-02-15T00:59:14;7.10;53.20
30520;DHT22;17300;50.374;8.006;2023-02-15T01:01:41;7.10;53.20
30520;DHT22;17300;50.374;8.006;2023-02-15T01:04:07;7.10;53.30
30520;DHT22;17300;50.374;8.006;2023-02-15T01:06:34;7.10;53.40
30520;DHT22;17300;50.374;8.006;2023-02-15T01:09:02;7.00;53.40
30520;DHT22;17300;50.374;8.006;2023-02-15T01:11:29;7.10;53.50
30520;DHT22;17300;50.374;8.006;2023-02-15T01:13:57;7.00;53.40
30520;DHT22;17300;50.374;8.006;2023-02-15T01:16:25;7.10;53.50
30520;DHT22;17300;50.374;8.006;2023-02-15T01:18:52;7.10;53.50
30520;DHT22;17300;50.374;8.006;2023-02-15T01:21:22;7.10;53.40
30520;DHT22;17300;50.374;8.006;2023-02-15T01:23:49;7.00;53.40
30520;DHT22;17300;50.374;8.006;2023-02-15T01:26:17;7.00;53.30
30520;DHT22;17300;50.374;8.006;2023-02-15T01:28:44;7.00;53.40
30520;DHT22;17300;50.374;8.006;2023-02-15T01:31:12;7.00;53.30
30520;DHT22;17300;50.374;8.006;2023-02-15T01:33:39;7.00;53.40
30520;DHT22;17300;50.374;8.006;2023-02-15T01:36:06;7.00;53.40
30520;DHT22;17300;50.374;8.006;2023-02-15T01:38:34;6.90;53.30
30520;DHT22;17300;50.374;8.006;2023-02-15T01:41:01;7.00;53.40
30520;DHT22;17300;50.374;8.006;2023-02-15T01:43:45;7.00;53.40
30520;DHT22;17300;50.374;8.006;2023-02-15T01:46:13;6.90;53.30
30520;DHT22;17300;50.374;8.006;2023-02-15T01:48:44;6.90;53.30
30520;DHT22;17300;50.374;8.006;2023-02-15T01:51:12;6.90;53.30
30520;DHT22;17300;50.374;8.006;2023-02-15T01:53:43;6.90;53.30
30520;DHT22;17300;50.374;8.006;2023-02-15T01:56:14;6.90;53.30
30520;DHT22;17300;50.374;8.006;2023-02-15T01:58:42;6.90;53.40
30520;DHT22;17300;50.374;8.006;2023-02-15T02:01:10;6.80;53.30
30520;DHT22;17300;50.374;8.006;2023-02-15T02:03:43;6.80;53.40
30520;DHT22;17300;50.374;8.006;2023-02-15T02:06:14;6.80;53.50
30520;DHT22;17300;50.374;8.006;2023-02-15T02:08:41;6.90;53.60
30520;DHT22;17300;50.374;8.006;2023-02-15T02:11:10;6.80;53.50
30520;DHT22;17300;50.374;8.006;2023-02-15T02:13:37;6.80;53.50
30520;DHT22;17300;50.374;8.006;2023-02-15T02:16:11;6.90;53.60
30520;DHT22;17300;50.374;8.006;2023-02-15T02:18:45;6.80;53.50
30520;DHT22;17300;50.374;8.006;2023-02-15T02:21:44;6.90;53.40
30520;DHT22;17300;50.374;8.006;2023-02-15T02:24:44;6.90;53.60
30520;DHT22;17300;50.374;8.006;2023-02-15T02:27:26;6.90;53.60
30520;DHT22;17300;50.374;8.006;2023-02-15T02:30:20;6.80;53.30
30520;DHT22;17300;50.374;8.006;2023-02-15T02:33:20;6.80;53.50
30520;DHT22;17300;50.374;8.006;2023-02-15T02:35:56;6.80;53.60
30520;DHT22;17300;50.374;8.006;2023-02-15T02:38:28;6.80;53.40
30520;DHT22;17300;50.374;8.006;2023-02-15T02:41:07;6.80;53.40
30520;DHT22;17300;50.374;8.006;2023-02-15T02:43:47;6.80;53.40
30520;DHT22;17300;50.374;8.006;2023-02-15T02:46:17;6.80;53.40
30520;DHT22;17300;50.374;8.006;2023-02-15T02:48:48;6.80;53.40
30520;DHT22;17300;50.374;8.006;2023-02-15T02:51:16;6.70;53.40
30520;DHT22;17300;50.374;8.006;2023-02-15T02:53:49;6.70;53.30
30520;DHT22;17300;50.374;8.006;2023-02-15T02:56:20;6.70;53.40
30520;DHT22;17300;50.374;8.006;2023-02-15T02:58:51;6.70;53.40
30520;DHT22;17300;50.374;8.006;2023-02-15T03:01:24;6.70;53.40
30520;DHT22;17300;50.374;8.006;2023-02-15T03:03:57;6.70;53.50
30520;DHT22;17300;50.374;8.006;2023-02-15T03:06:28;6.70;53.50
30520;DHT22;17300;50.374;8.006;2023-02-15T03:09:01;6.70;53.60
30520;DHT22;17300;50.374;8.006;2023-02-15T03:11:30;6.70;53.60
30520;DHT22;17300;50.374;8.006;2023-02-15T03:13:57;6.70;53.50
30520;DHT22;17300;50.374;8.006;2023-02-15T03:16:24;6.70;53.50
30520;DHT22;17300;50.374;8.006;2023-02-15T03:18:56;6.60;53.40
30520;DHT22;17300;50.374;8.006;2023-02-15T03:21:31;6.60;53.40
30520;DHT22;17300;50.374;8.006;2023-02-15T03:24:02;6.60;53.40
30520;DHT22;17300;50.374;8.006;2023-02-15T03:26:32;6.60;53.40
30520;DHT22;17300;50.374;8.006;2023-02-15T03:29:02;6.60;53.30
30520;DHT22;17300;50.374;8.006;2023-02-15T03:31:32;6.50;53.30
30520;DHT22;17300;50.374;8.006;2023-02-15T03:34:03;6.50;53.40
30520;DHT22;17300;50.374;8.006;2023-02-15T03:36:35;6.50;53.50
30520;DHT22;17300;50.374;8.006;2023-02-15T03:39:10;6.40;53.40
30520;DHT22;17300;50.374;8.006;2023-02-15T03:41:41;6.50;53.50
30520;DHT22;17300;50.374;8.006;2023-02-15T03:44:15;6.40;53.40
30520;DHT22;17300;50.374;8.006;2023-02-15T03:46:46;6.40;53.70
30520;DHT22;17300;50.374;8.006;2023-02-15T03:49:21;6.40;53.80
30520;DHT22;17300;50.374;8.006;2023-02-15T03:51:50;6.40;54.00
30520;DHT22;17300;50.374;8.006;2023-02-15T03:54:21;6.40;54.00
30520;DHT22;17300;50.374;8.006;2023-02-15T03:57:03;6.40;54.10
30520;DHT22;17300;50.374;8.006;2023-02-15T03:59:47;6.50;54.10
30520;DHT22;17300;50.374;8.006;2023-02-15T04:02:36;6.50;54.10
30520;DHT22;17300;50.374;8.006;2023-02-15T04:05:06;6.50;54.20
30520;DHT22;17300;50.374;8.006;2023-02-15T04:07:32;6.60;54.20
30520;DHT22;17300;50.374;8.006;2023-02-15T04:09:59;6.60;54.10
30520;DHT22;17300;50.374;8.006;2023-02-15T04:12:43;6.60;54.10
30520;DHT22;17300;50.374;8.006;2023-02-15T04:15:11;6.70;54.20
30520;DHT22;17300;50.374;8.006;2023-02-15T04:17:56;6.70;54.20
30520;DHT22;17300;50.374;8.006;2023-02-15T04:20:24;6.70;54.10
30520;DHT22;17300;50.374;8.006;2023-02-15T04:23:09;6.70;54.10
30520;DHT22;17300;50.374;8.006;2023-02-15T04:25:53;6.70;54.00
30520;DHT22;17300;50.374;8.006;2023-02-15T04:28:19;6.80;54.10
30520;DHT22;17300;50.374;8.006;2023-02-15T04:30:46;6.80;54.10
30520;DHT22;17300;50.374;8.006;2023-02-15T04:33:13;6.80;54.20
30520;DHT22;17300;50.374;8.006;2023-02-15T04:35:43;6.80;54.00
30520;DHT22;17300;50.374;8.006;2023-02-15T04:38:10;6.80;54.00
30520;DHT22;17300;50.374;8.006;2023-02-15T04:40:37;6.80;53.90
30520;DHT22;17300;50.374;8.006;2023-02-15T04:43:03;6.80;54.00
30520;DHT22;17300;50.374;8.006;2023-02-15T04:45:30;6.80;54.00
30520;DHT22;17300;50.374;8.006;2023-02-15T04:47:57;6.80;54.10
30520;DHT22;17300;50.374;8.006;2023-02-15T04:50:23;6.80;54.10
30520;DHT22;17300;50.374;8.006;2023-02-15T04:52:51;6.80;54.10
30520;DHT22;17300;50.374;8.006;2023-02-15T04:55:18;6.80;54.10
30520;DHT22;17300;50.374;8.006;2023-02-15T04:57:46;6.80;54.00
30520;DHT22;17300;50.374;8.006;2023-02-15T05:00:13;6.80;53.90
30520;DHT22;17300;50.374;8.006;2023-02-15T05:02:39;6.80;53.90
30520;DHT22;17300;50.374;8.006;2023-02-15T05:05:06;6.80;53.80
30520;DHT22;17300;50.374;8.006;2023-02-15T05:07:34;6.80;53.90
30520;DHT22;17300;50.374;8.006;2023-02-15T05:10:03;6.80;54.00
30520;DHT22;17300;50.374;8.006;2023-02-15T05:12:30;6.80;54.00
30520;DHT22;17300;50.374;8.006;2023-02-15T05:14:56;6.80;54.60
30520;DHT22;17300;50.374;8.006;2023-02-15T05:17:23;6.80;54.00
30520;DHT22;17300;50.374;8.006;2023-02-15T05:19:49;6.80;54.00
30520;DHT22;17300;50.374;8.006;2023-02-15T05:22:16;6.80;53.90
30520;DHT22;17300;50.374;8.006;2023-02-15T05:24:43;6.80;53.90
30520;DHT22;17300;50.374;8.006;2023-02-15T05:27:29;6.70;53.80
30520;DHT22;17300;50.374;8.006;2023-02-15T05:30:13;6.70;53.80
30520;DHT22;17300;50.374;8.006;2023-02-15T05:32:40;6.70;53.80
30520;DHT22;17300;50.374;8.006;2023-02-15T05:35:07;6.70;53.80
30520;DHT22;17300;50.374;8.006;2023-02-15T05:37:34;6.70;53.80
30520;DHT22;17300;50.374;8.006;2023-02-15T05:40:00;6.70;53.80
30520;DHT22;17300;50.374;8.006;2023-02-15T05:42:28;6.70;53.90
30520;DHT22;17300;50.374;8.006;2023-02-15T05:44:55;6.70;54.00
30520;DHT22;17300;50.374;8.006;2023-02-15T05:47:21;6.70;53.90
30520;DHT22;17300;50.374;8.006;2023-02-15T05:49:48;6.70;53.90
30520;DHT22;17300;50.374;8.006;2023-02-15T05:52:15;6.70;53.90
30520;DHT22;17300;50.374;8.006;2023-02-15T05:54:41;6.70;53.80
30520;DHT22;17300;50.374;8.006;2023-02-15T05:57:08;6.70;53.90
30520;DHT22;17300;50.374;8.006;2023-02-15T05:59:36;6.70;53.90
30520;DHT22;17300;50.374;8.006;2023-02-15T06:02:03;6.70;54.00
30520;DHT22;17300;50.374;8.006;2023-02-15T06:04:31;6.70;54.00
30520;DHT22;17300;50.374;8.006;2023-02-15T06:06:58;6.70;54.00
30520;DHT22;17300;50.374;8.006;2023-02-15T06:09:27;6.70;54.10
30520;DHT22;17300;50.374;8.006;2023-02-15T06:11:56;6.70;54.70
30520;DHT22;17300;50.374;8.006;2023-02-15T06:14:23;6.70;54.00
30520;DHT22;17300;50.374;8.006;2023-02-15T06:19:44;6.70;54.20
30520;DHT22;17300;50.374;8.006;2023-02-15T06:22:11;6.70;54.00
30520;DHT22;17300;50.374;8.006;2023-02-15T06:24:39;6.60;54.00
30520;DHT22;17300;50.374;8.006;2023-02-15T06:27:07;6.70;54.10
30520;DHT22;17300;50.374;8.006;2023-02-15T06:29:34;6.70;54.20
30520;DHT22;17300;50.374;8.006;2023-02-15T06:32:02;6.70;54.20
30520;DHT22;17300;50.374;8.006;2023-02-15T06:34:29;6.70;54.30
30520;DHT22;17300;50.374;8.006;2023-02-15T06:36:55;6.70;54.40
30520;DHT22;17300;50.374;8.006;2023-02-15T06:39:22;6.70;54.40
30520;DHT22;17300;50.374;8.006;2023-02-15T06:41:49;6.70;54.30
30520;DHT22;17300;50.374;8.006;2023-02-15T06:44:15;6.80;54.40
30520;DHT22;17300;50.374;8.006;2023-02-15T06:46:42;6.80;54.30
30520;DHT22;17300;50.374;8.006;2023-02-15T06:49:10;6.80;54.20
30520;DHT22;17300;50.374;8.006;2023-02-15T06:51:36;6.80;54.10
30520;DHT22;17300;50.374;8.006;2023-02-15T06:54:03;6.80;54.60
30520;DHT22;17300;50.374;8.006;2023-02-15T06:56:30;6.80;54.00
30520;DHT22;17300;50.374;8.006;2023-02-15T06:58:57;6.80;54.00
30520;DHT22;17300;50.374;8.006;2023-02-15T07:01:23;6.80;54.00
30520;DHT22;17300;50.374;8.006;2023-02-15T07:03:50;6.80;53.90
30520;DHT22;17300;50.374;8.006;2023-02-15T07:06:18;6.80;54.00
30520;DHT22;17300;50.374;8.006;2023-02-15T07:08:45;6.80;54.00
30520;DHT22;17300;50.374;8.006;2023-02-15T07:11:11;6.80;54.00
30520;DHT22;17300;50.374;8.006;2023-02-15T07:13:56;6.80;54.00
30520;DHT22;17300;50.374;8.006;2023-02-15T07:16:23;6.80;54.00
30520;DHT22;17300;50.374;8.006;2023-02-15T07:18:49;6.80;54.10
30520;DHT22;17300;50.374;8.006;2023-02-15T07:21:17;6.80;54.10
30520;DHT22;17300;50.374;8.006;2023-02-15T07:23:44;6.80;54.20
30520;DHT22;17300;50.374;8.006;2023-02-15T07:26:11;6.80;54.20
30520;DHT22;17300;50.374;8.006;2023-02-15T07:28:38;6.90;54.30
30520;DHT22;17300;50.374;8.006;2023-02-15T07:31:05;6.90;54.30
30520;DHT22;17300;50.374;8.006;2023-02-15T07:33:32;6.90;54.40
30520;DHT22;17300;50.374;8.006;2023-02-15T07:36:00;6.90;54.40
30520;DHT22;17300;50.374;8.006;2023-02-15T07:38:30;7.00;54.50
30520;DHT22;17300;50.374;8.006;2023-02-15T07:40:58;7.00;54.50
30520;DHT22;17300;50.374;8.006;2023-02-15T07:43:25;7.10;54.50
30520;DHT22;17300;50.374;8.006;2023-02-15T07:45:52;7.10;54.50
30520;DHT22;17300;50.374;8.006;2023-02-15T07:48:19;7.10;54.40
30520;DHT22;17300;50.374;8.006;2023-02-15T07:50:45;7.20;54.40
30520;DHT22;17300;50.374;8.006;2023-02-15T07:53:12;7.20;54.40
30520;DHT22;17300;50.374;8.006;2023-02-15T07:55:40;7.30;54.50
30520;DHT22;17300;50.374;8.006;2023-02-15T07:58:06;7.30;54.50
30520;DHT22;17300;50.374;8.006;2023-02-15T08:00:33;7.30;54.50
30520;DHT22;17300;50.374;8.006;2023-02-15T08:03:22;7.40;54.70
30520;DHT22;17300;50.374;8.006;2023-02-15T08:05:55;7.40;54.60
30520;DHT22;17300;50.374;8.006;2023-02-15T08:08:22;7.40;54.50
30520;DHT22;17300;50.374;8.006;2023-02-15T08:11:00;7.50;54.40
30520;DHT22;17300;50.374;8.006;2023-02-15T08:13:45;7.50;54.30
30520;DHT22;17300;50.374;8.006;2023-02-15T08:16:21;7.50;54.20
30520;DHT22;17300;50.374;8.006;2023-02-15T08:18:48;7.50;54.10
30520;DHT22;17300;50.374;8.006;2023-02-15T08:21:15;7.50;54.00
30520;DHT22;17300;50.374;8.006;2023-02-15T08:23:42;7.50;54.10
30520;DHT22;17300;50.374;8.006;2023-02-15T08:26:10;7.50;54.10
30520;DHT22;17300;50.374;8.006;2023-02-15T08:28:37;7.60;54.30
30520;DHT22;17300;50.374;8.006;2023-02-15T08:31:05;7.60;54.30
30520;DHT22;17300;50.374;8.006;2023-02-15T08:33:31;7.60;54.30
30520;DHT22;17300;50.374;8.006;2023-02-15T08:36:02;7.60;54.40
30520;DHT22;17300;50.374;8.006;2023-02-15T08:38:29;7.70;54.60
30520;DHT22;17300;50.374;8.006;2023-02-15T08:40:56;7.70;54.50
30520;DHT22;17300;50.374;8.006;2023-02-15T08:43:24;7.80;54.70
30520;DHT22;17300;50.374;8.006;2023-02-15T08:45:50;7.80;54.60
30520;DHT22;17300;50.374;8.006;2023-02-15T08:48:17;7.90;54.40
30520;DHT22;17300;50.374;8.006;2023-02-15T08:50:44;7.90;54.30
30520;DHT22;17300;50.374;8.006;2023-02-15T08:53:11;7.90;54.30
30520;DHT22;17300;50.374;8.006;2023-02-15T08:55:37;8.00;54.10
30520;DHT22;17300;50.374;8.006;2023-02-15T08:58:05;8.00;54.00
30520;DHT22;17300;50.374;8.006;2023-02-15T09:00:33;8.00;54.00
30520;DHT22;17300;50.374;8.006;2023-02-15T09:02:59;8.00;54.10
30520;DHT22;17300;50.374;8.006;2023-02-15T09:05:26;8.00;54.00
30520;DHT22;17300;50.374;8.006;2023-02-15T09:07:53;8.10;54.00
30520;DHT22;17300;50.374;8.006;2023-02-15T09:10:19;8.10;54.70
30520;DHT22;17300;50.374;8.006;2023-02-15T09:12:46;8.10;54.10
30520;DHT22;17300;50.374;8.006;2023-02-15T09:15:15;8.10;54.20
30520;DHT22;17300;50.374;8.006;2023-02-15T09:17:43;8.20;54.30
30520;DHT22;17300;50.374;8.006;2023-02-15T09:20:10;8.20;54.30
30520;DHT22;17300;50.374;8.006;2023-02-15T09:22:37;8.30;54.40
30520;DHT22;17300;50.374;8.006;2023-02-15T09:25:04;8.40;54.50
30520;DHT22;17300;50.374;8.006;2023-02-15T09:27:31;8.40;54.40
30520;DHT22;17300;50.374;8.006;2023-02-15T09:29:57;8.50;54.40
30520;DHT22;17300;50.374;8.006;2023-02-15T09:32:24;8.50;54.30
30520;DHT22;17300;50.374;8.006;2023-02-15T09:34:52;8.60;54.30
30520;DHT22;17300;50.374;8.006;2023-02-15T09:37:19;8.60;54.20
30520;DHT22;17300;50.374;8.006;2023-02-15T09:39:45;8.70;54.20
30520;DHT22;17300;50.374;8.006;2023-02-15T09:42:41;8.80;54.30
30520;DHT22;17300;50.374;8.006;2023-02-15T09:45:31;8.80;54.30
30520;DHT22;17300;50.374;8.006;2023-02-15T09:48:22;8.90;54.00
30520;DHT22;17300;50.374;8.006;2023-02-15T09:51:00;8.90;53.90
30520;DHT22;17300;50.374;8.006;2023-02-15T09:53:42;9.00;53.80
30520;DHT22;17300;50.374;8.006;2023-02-15T09:56:17;9.00;53.60
30520;DHT22;17300;50.374;8.006;2023-02-15T09:58:51;9.00;53.70
30520;DHT22;17300;50.374;8.006;2023-02-15T10:01:28;9.00;53.90
30520;DHT22;17300;50.374;8.006;2023-02-15T10:04:09;9.10;54.00
30520;DHT22;17300;50.374;8.006;2023-02-15T10:06:44;9.10;53.90
30520;DHT22;17300;50.374;8.006;2023-02-15T10:09:24;9.20;53.90
30520;DHT22;17300;50.374;8.006;2023-02-15T10:12:03;9.30;53.80
30520;DHT22;17300;50.374;8.006;2023-02-15T10:14:46;9.30;53.70
30520;DHT22;17300;50.374;8.006;2023-02-15T10:17:39;9.40;53.70
30520;DHT22;17300;50.374;8.006;2023-02-15T10:20:20;9.50;53.70
30520;DHT22;17300;50.374;8.006;2023-02-15T10:23:05;9.50;53.70
30520;DHT22;17300;50.374;8.006;2023-02-15T10:25:41;9.60;53.80
30520;DHT22;17300;50.374;8.006;2023-02-15T10:28:15;9.60;53.70
30520;DHT22;17300;50.374;8.006;2023-02-15T10:30:46;9.70;53.90
30520;DHT22;17300;50.374;8.006;2023-02-15T10:33:21;9.80;53.90
30520;DHT22;17300;50.374;8.006;2023-02-15T10:35:55;9.90;53.80
30520;DHT22;17300;50.374;8.006;2023-02-15T10:38:32;9.90;53.60
30520;DHT22;17300;50.374;8.006;2023-02-15T10:41:12;10.00;52.80
30520;DHT22;17300;50.374;8.006;2023-02-15T10:43:49;10.10;53.50
30520;DHT22;17300;50.374;8.006;2023-02-15T10:46:36;10.10;52.80
30520;DHT22;17300;50.374;8.006;2023-02-15T10:49:19;10.20;52.60
30520;DHT22;17300;50.374;8.006;2023-02-15T10:51:57;10.20;52.60
30520;DHT22;17300;50.374;8.006;2023-02-15T10:54:33;10.30;52.70
30520;DHT22;17300;50.374;8.006;2023-02-15T10:57:06;10.30;52.70
30520;DHT22;17300;50.374;8.006;2023-02-15T10:59:49;10.40;52.90
30520;DHT22;17300;50.374;8.006;2023-02-15T11:02:30;10.50;52.70
30520;DHT22;17300;50.374;8.006;2023-02-15T11:05:10;10.50;52.80
30520;DHT22;17300;50.374;8.006;2023-02-15T11:07:43;10.60;52.90
30520;DHT22;17300;50.374;8.006;2023-02-15T11:10:26;10.70;52.90
30520;DHT22;17300;50.374;8.006;2023-02-15T11:12:55;10.80;52.60
30520;DHT22;17300;50.374;8.006;2023-02-15T11:15:27;10.80;52.80
30520;DHT22;17300;50.374;8.006;2023-02-15T11:17:59;10.90;52.70
30520;DHT22;17300;50.374;8.006;2023-02-15T11:20:30;11.00;52.90
30520;DHT22;17300;50.374;8.006;2023-02-15T11:23:01;11.10;53.00
30520;DHT22;17300;50.374;8.006;2023-02-15T11:25:31;11.20;53.00
30520;DHT22;17300;50.374;8.006;2023-02-15T11:28:00;11.30;53.00
30520;DHT22;17300;50.374;8.006;2023-02-15T11:30:40;11.40;52.90
30520;DHT22;17300;50.374;8.006;2023-02-15T11:33:14;11.50;52.60
30520;DHT22;17300;50.374;8.006;2023-02-15T11:35:48;11.60;52.60
30520;DHT22;17300;50.374;8.006;2023-02-15T11:38:20;11.70;52.60
30520;DHT22;17300;50.374;8.006;2023-02-15T11:40:50;11.70;53.30
30520;DHT22;17300;50.374;8.006;2023-02-15T11:43:21;11.80;52.60
30520;DHT22;17300;50.374;8.006;2023-02-15T11:45:50;11.90;52.50
30520;DHT22;17300;50.374;8.006;2023-02-15T11:48:17;12.00;52.50
30520;DHT22;17300;50.374;8.006;2023-02-15T11:50:44;12.10;52.50
30520;DHT22;17300;50.374;8.006;2023-02-15T11:53:13;12.20;52.20
30520;DHT22;17300;50.374;8.006;2023-02-15T11:55:43;12.20;52.00
30520;DHT22;17300;50.374;8.006;2023-02-15T11:58:18;12.30;52.00
30520;DHT22;17300;50.374;8.006;2023-02-15T12:00:50;12.30;51.80
30520;DHT22;17300;50.374;8.006;2023-02-15T12:03:22;12.40;52.00
30520;DHT22;17300;50.374;8.006;2023-02-15T12:05:57;12.40;52.00
30520;DHT22;17300;50.374;8.006;2023-02-15T12:08:24;12.50;52.10
30520;DHT22;17300;50.374;8.006;2023-02-15T12:10:57;12.60;52.30
30520;DHT22;17300;50.374;8.006;2023-02-15T12:13:26;12.70;52.30
30520;DHT22;17300;50.374;8.006;2023-02-15T12:15:55;12.80;52.60
30520;DHT22;17300;50.374;8.006;2023-02-15T12:18:36;13.00;53.30
30520;DHT22;17300;50.374;8.006;2023-02-15T12:21:06;13.10;52.40
30520;DHT22;17300;50.374;8.006;2023-02-15T12:23:36;13.30;52.80
30520;DHT22;17300;50.374;8.006;2023-02-15T12:26:06;13.40;52.60
30520;DHT22;17300;50.374;8.006;2023-02-15T12:28:36;13.60;52.60
30520;DHT22;17300;50.374;8.006;2023-02-15T12:31:09;13.80;52.50
30520;DHT22;17300;50.374;8.006;2023-02-15T12:33:41;13.90;52.30
30520;DHT22;17300;50.374;8.006;2023-02-15T12:36:14;14.10;52.00
30520;DHT22;17300;50.374;8.006;2023-02-15T12:38:42;14.20;52.00
30520;DHT22;17300;50.374;8.006;2023-02-15T12:41:22;14.40;52.00
30520;DHT22;17300;50.374;8.006;2023-02-15T12:44:04;14.50;51.30
30520;DHT22;17300;50.374;8.006;2023-02-15T12:46:31;14.60;51.20
30520;DHT22;17300;50.374;8.006;2023-02-15T12:49:06;14.70;51.70
30520;DHT22;17300;50.374;8.006;2023-02-15T12:51:43;14.90;51.20
30520;DHT22;17300;50.374;8.006;2023-02-15T12:54:17;15.00;50.70
30520;DHT22;17300;50.374;8.006;2023-02-15T12:56:43;15.10;50.20
30520;DHT22;17300;50.374;8.006;2023-02-15T12:59:13;15.10;50.30
30520;DHT22;17300;50.374;8.006;2023-02-15T13:01:41;15.10;50.00
30520;DHT22;17300;50.374;8.006;2023-02-15T13:04:18;15.20;50.50
30520;DHT22;17300;50.374;8.006;2023-02-15T13:06:48;15.10;49.90
30520;DHT22;17300;50.374;8.006;2023-02-15T13:09:19;15.20;50.10
30520;DHT22;17300;50.374;8.006;2023-02-15T13:11:46;15.20;50.10
30520;DHT22;17300;50.374;8.006;2023-02-15T13:14:19;15.30;50.10
30520;DHT22;17300;50.374;8.006;2023-02-15T13:16:49;15.30;49.80
30520;DHT22;17300;50.374;8.006;2023-02-15T13:19:19;15.30;50.00
30520;DHT22;17300;50.374;8.006;2023-02-15T13:21:48;15.40;49.80
30520;DHT22;17300;50.374;8.006;2023-02-15T13:24:19;15.40;49.60
30520;DHT22;17300;50.374;8.006;2023-02-15T13:26:47;15.40;49.40
30520;DHT22;17300;50.374;8.006;2023-02-15T13:29:21;15.40;49.40
30520;DHT22;17300;50.374;8.006;2023-02-15T13:31:49;15.40;49.20
30520;DHT22;17300;50.374;8.006;2023-02-15T13:34:20;15.40;49.20
30520;DHT22;17300;50.374;8.006;2023-02-15T13:36:53;15.30;49.10
30520;DHT22;17300;50.374;8.006;2023-02-15T13:39:28;15.30;49.20
30520;DHT22;17300;50.374;8.006;2023-02-15T13:42:00;15.30;48.80
30520;DHT22;17300;50.374;8.006;2023-02-15T13:44:50;15.30;48.80
30520;DHT22;17300;50.374;8.006;2023-02-15T13:47:23;15.30;48.50
30520;DHT22;17300;50.374;8.006;2023-02-15T13:50:03;15.20;48.70
30520;DHT22;17300;50.374;8.006;2023-02-15T13:52:34;15.20;48.40
30520;DHT22;17300;50.374;8.006;2023-02-15T13:55:28;15.10;48.60
30520;DHT22;17300;50.374;8.006;2023-02-15T13:58:22;15.10;48.30
30520;DHT22;17300;50.374;8.006;2023-02-15T14:01:00;15.00;48.20
30520;DHT22;17300;50.374;8.006;2023-02-15T14:03:54;14.90;48.30
30520;DHT22;17300;50.374;8.006;2023-02-15T14:06:58;14.80;48.00
30520;DHT22;17300;50.374;8.006;2023-02-15T14:09:37;14.80;48.00
30520;DHT22;17300;50.374;8.006;2023-02-15T14:12:26;14.70;48.10
30520;DHT22;17300;50.374;8.006;2023-02-15T14:15:06;14.50;47.70
30520;DHT22;17300;50.374;8.006;2023-02-15T14:17:45;14.50;47.90
30520;DHT22;17300;50.374;8.006;2023-02-15T14:20:19;14.30;47.70
30520;DHT22;17300;50.374;8.006;2023-02-15T14:22:54;14.20;47.70
30520;DHT22;17300;50.374;8.006;2023-02-15T14:25:30;14.10;47.70
30520;DHT22;17300;50.374;8.006;2023-02-15T14:28:03;14.00;47.90
30520;DHT22;17300;50.374;8.006;2023-02-15T14:30:36;13.80;48.10
30520;DHT22;17300;50.374;8.006;2023-02-15T14:33:07;13.80;48.40
30520;DHT22;17300;50.374;8.006;2023-02-15T14:35:34;13.80;48.70
30520;DHT22;17300;50.374;8.006;2023-02-15T14:38:06;13.70;48.90
30520;DHT22;17300;50.374;8.006;2023-02-15T14:40:42;13.70;49.00
30520;DHT22;17300;50.374;8.006;2023-02-15T14:43:34;13.70;49.10
30520;DHT22;17300;50.374;8.006;2023-02-15T14:46:11;13.70;48.90
30520;DHT22;17300;50.374;8.006;2023-02-15T14:48:45;13.70;49.40
30520;DHT22;17300;50.374;8.006;2023-02-15T14:52:03;13.70;48.70
30520;DHT22;17300;50.374;8.006;2023-02-15T14:54:56;13.60;48.30
30520;DHT22;17300;50.374;8.006;2023-02-15T14:57:25;13.60;48.00
30520;DHT22;17300;50.374;8.006;2023-02-15T14:59:54;13.40;48.00
30520;DHT22;17300;50.374;8.006;2023-02-15T15:02:25;13.30;47.90
30520;DHT22;17300;50.374;8.006;2023-02-15T15:05:00;13.20;47.90
30520;DHT22;17300;50.374;8.006;2023-02-15T15:07:37;13.10;48.00
30520;DHT22;17300;50.374;8.006;2023-02-15T15:10:06;13.00;48.30
30520;DHT22;17300;50.374;8.006;2023-02-15T15:12:42;12.90;48.30
30520;DHT22;17300;50.374;8.006;2023-02-15T15:15:12;12.90;48.40
30520;DHT22;17300;50.374;8.006;2023-02-15T15:17:53;12.80;48.40
30520;DHT22;17300;50.374;8.006;2023-02-15T15:20:46;12.70;48.20
30520;DHT22;17300;50.374;8.006;2023-02-15T15:23:36;12.70;48.50
30520;DHT22;17300;50.374;8.006;2023-02-15T15:26:21;12.60;48.60
30520;DHT22;17300;50.374;8.006;2023-02-15T15:28:57;12.50;48.70
30520;DHT22;17300;50.374;8.006;2023-02-15T15:31:30;12.50;48.70
30520;DHT22;17300;50.374;8.006;2023-02-15T15:34:27;12.40;48.60
30520;DHT22;17300;50.374;8.006;2023-02-15T15:37:49;12.30;48.50
30520;DHT22;17300;50.374;8.006;2023-02-15T15:40:42;12.30;48.60
30520;DHT22;17300;50.374;8.006;2023-02-15T15:43:35;12.20;48.60
30520;DHT22;17300;50.374;8.006;2023-02-15T15:46:21;12.10;48.60
30520;DHT22;17300;50.374;8.006;2023-02-15T15:48:51;12.00;48.60
30520;DHT22;17300;50.374;8.006;2023-02-15T15:51:20;11.90;48.60
30520;DHT22;17300;50.374;8.006;2023-02-15T15:53:51;11.80;48.50
30520;DHT22;17300;50.374;8.006;2023-02-15T15:56:21;11.70;49.10
30520;DHT22;17300;50.374;8.006;2023-02-15T15:58:51;11.70;48.60
30520;DHT22;17300;50.374;8.006;2023-02-15T16:01:26;11.60;48.60
30520;DHT22;17300;50.374;8.006;2023-02-15T16:03:54;11.50;48.70
30520;DHT22;17300;50.374;8.006;2023-02-15T16:06:30;11.40;48.60
30520;DHT22;17300;50.374;8.006;2023-02-15T16:09:12;11.30;48.70
30520;DHT22;17300;50.374;8.006;2023-02-15T16:11:40;11.20;48.70
30520;DHT22;17300;50.374;8.006;2023-02-15T16:14:16;11.10;48.60